Tokeland, Washington
Current Conditions -  °F | °C
As of 11:08 PM on Thursday 30 Oct 2014 (Local Time) from KHQM Reporting Station
Haze Haze  
Wind Chill: 54°   Ceiling: 10000
Heat Index: 54°   Visibility: 2mi
Dew Point: 53°   Wind: 0mph
Humidity: 97%   Direction: NA
Pressure: 29.77"   Gusts: NA
Location:  46.71°N, 123.98°W
Report Text: KHQM 310608Z AUTO 00000KT 2SM BR OVC100 12/12 A2977 RMK AO2 T01220117
Loading
Personal Weather Stations






























Interactive Weather Map
Tropical Storm Tracking
New forecast layout! Learn more

10-Day Weather Forecast

Advertisements
Track Severe Weather on mobile